Bf Esperanza — V2BR8 — position and weather

sailwx.info

Track history (hours):
 
Tides and Currents Weather Stations Pressure Air Temp Water Temp Dewpoint Dewpoint Depression Visibility Wind Speed Wind Dir Waves Ship Positions

Bf Esperanza

Last reported at 2014-Sep-16 14:31 UTC. Time now 2014-Sep-16 21:26 UTC.
Position N 35°59' W 005°30'.

Length 135 m; draft 8.1 m.

Type: Cargo ship. MMSI: 304907000.

Date/timePositionNaut miles runAvg speedWind from/ knotsBaromVisibWave heightAir tempDewpointWater temp
2014-Sep-16 14:31N 35°59' W 005°30'13812.2
2014-Sep-16 03:15N 36°21' W 002°41'1013.8
2014-Sep-16 02:33N 36°23' W 002°29'6512.4
2014-Sep-15 21:19N 36°60' W 001°23'1413.0
2014-Sep-15 20:17N 37°08' W 001°10'912.5
2014-Sep-15 19:33N 37°15' W 001°01'1312.7
2014-Sep-15 18:32N 37°23' W 000°49'1313.0
2014-Sep-15 17:33N 37°31' W 000°37'1313.2
2014-Sep-15 16:32N 37°42' W 000°27'1313.3
2014-Sep-15 15:33N 37°53' W 000°18'3812.8
2014-Sep-15 12:33N 38°25' E 000°08'6510.8
2014-Sep-15 06:33N 39°27' W 000°19'1 0.3
2014-Sep-15 04:12N 39°27' W 000°19'0 0.0
2014-Sep-15 02:06N 39°27' W 000°19'0 0.0
2014-Sep-15 01:23N 39°27' W 000°19'0 0.0
2014-Sep-15 00:26N 39°27' W 000°19'0 0.0
2014-Sep-14 23:29N 39°27' W 000°19'0 0.0
2014-Sep-14 21:28N 39°27' W 000°19'6 6.5
2014-Sep-14 20:33N 39°29' W 000°12'3114.5
2014-Sep-14 18:26N 39°50' E 000°18'4414.8
2014-Sep-14 15:27N 40°19' E 001°01'1112.1
2014-Sep-14 14:32N 40°27' E 001°11'2114.6
2014-Sep-14 13:07N 40°41' E 001°31'4813.5
2014-Sep-14 09:32N 41°12' E 002°20'1514.6
2014-Sep-14 08:29N 41°21' E 002°36'1714.9
2014-Sep-14 07:19N 41°32' E 002°54'8113.9
2014-Sep-14 01:30N 42°28' E 004°13'5614.3
2014-Sep-13 21:33N 43°09' E 005°06'1313.1
2014-Sep-13 20:33N 43°20' E 005°16'3 2.7
2014-Sep-13 19:22N 43°21' E 005°20'0 0.0
2014-Sep-13 18:31N 43°21' E 005°20'0 0.0
2014-Sep-13 17:21N 43°21' E 005°20'0 0.0
2014-Sep-13 16:24N 43°21' E 005°20'0 0.0
2014-Sep-13 15:23N 43°21' E 005°20'0 0.0
2014-Sep-13 14:20N 43°21' E 005°20'0 0.1
2014-Sep-13 13:32N 43°21' E 005°20'0 0.0
2014-Sep-13 12:29N 43°21' E 005°20'0 0.0
2014-Sep-13 08:33N 43°21' E 005°20'0 0.0
2014-Sep-13 07:26N 43°21' E 005°20'0 0.0
2014-Sep-13 05:32N 43°21' E 005°20'0 0.0
2014-Sep-13 04:28N 43°21' E 005°20'0 0.0
2014-Sep-13 03:31N 43°21' E 005°20'0 0.0
2014-Sep-13 02:24N 43°21' E 005°20'0 0.0
2014-Sep-13 01:33N 43°21' E 005°20'0 0.0
2014-Sep-13 00:14N 43°21' E 005°20'0 0.0
2014-Sep-12 22:29N 43°21' E 005°20'0 0.0
2014-Sep-12 21:25N 43°21' E 005°20'0 0.0
2014-Sep-12 20:10N 43°21' E 005°20'0 0.0
2014-Sep-12 19:24N 43°21' E 005°20'0 0.0
2014-Sep-12 18:18N 43°21' E 005°20'0 0.0
2014-Sep-12 17:29N 43°21' E 005°20'0 0.0
2014-Sep-12 16:24N 43°21' E 005°20'0 0.0
2014-Sep-12 15:32N 43°21' E 005°20'3 3.4
2014-Sep-12 14:33N 43°20' E 005°16'1211.5
2014-Sep-12 13:33N 43°10' E 005°08'1613.6
2014-Sep-12 12:21N 42°58' E 004°52'1013.1
2014-Sep-12 11:33N 42°51' E 004°42'1615.2
2014-Sep-12 10:29N 42°39' E 004°27'1311.2
2014-Sep-12 09:19N 42°30' E 004°14'1213.2
2014-Sep-12 08:27N 42°21' E 004°04'1313.1
2014-Sep-12 07:27N 42°12' E 003°51'1313.5
2014-Sep-12 06:27N 42°02' E 003°39'1212.9
2014-Sep-12 05:32N 41°54' E 003°27'1313.0
2014-Sep-12 04:33N 41°47' E 003°13'1313.0
2014-Sep-12 03:33N 41°39' E 002°59'1313.1
2014-Sep-12 02:33N 41°32' E 002°45'1413.9
2014-Sep-12 01:33N 41°25' E 002°28'1313.3
2014-Sep-12 00:33N 41°18' E 002°13'5 0.7
2014-Sep-11 18:10N 41°21' E 002°10'0 0.0
2014-Sep-11 16:27N 41°21' E 002°10'0 0.1
2014-Sep-11 11:32N 41°21' E 002°10'1010.1
2014-Sep-11 10:33N 41°11' E 002°08'1616.1
2014-Sep-11 09:33N 40°57' E 001°58'1616.4
2014-Sep-11 08:33N 40°43' E 001°48'1716.6
2014-Sep-11 07:33N 40°28' E 001°38'1616.3
2014-Sep-11 06:33N 40°13' E 001°28'1716.6
2014-Sep-11 05:33N 39°59' E 001°17'1616.1
2014-Sep-11 04:33N 39°45' E 001°07'1616.3
2014-Sep-11 03:33N 39°29' E 001°02'1616.5
2014-Sep-11 02:33N 39°14' E 000°53'1616.2
2014-Sep-11 01:33N 39°01' E 000°41'5416.4
2014-Sep-10 22:15N 38°13' E 000°08'1116.0
2014-Sep-10 21:33N 38°03' E 000°02'1616.2
2014-Sep-10 20:33N 37°49' W 000°07'1616.2
2014-Sep-10 19:33N 37°35' W 000°17'1816.3
2014-Sep-10 18:27N 37°19' W 000°27'1516.2
2014-Sep-10 17:31N 37°05' W 000°36'1716.1
2014-Sep-10 16:28N 36°50' W 000°46'1616.2
2014-Sep-10 15:28N 36°36' W 000°55'  
2014-Sep-07 19:07N 35°58' W 005°14'  
Track history (hours):
 
Tides and Currents Weather Stations Pressure Air Temp Water Temp Dewpoint Dewpoint Depression Visibility Wind Speed Wind Dir Waves Ship Positions

Bf Esperanza

Last reported at 2014-Sep-16 14:31 UTC. Time now 2014-Sep-16 21:26 UTC.
Position N 35°59' W 005°30'.

Length 135 m; draft 8.1 m.

Type: Cargo ship. MMSI: 304907000.

Date/timePositionNaut miles runAvg speedWind from/ knotsBaromVisibWave heightAir tempDewpointWater temp
2014-Sep-16 14:31N 35°59' W 005°30'13812.2
2014-Sep-16 03:15N 36°21' W 002°41'1013.8
2014-Sep-16 02:33N 36°23' W 002°29'6512.4
2014-Sep-15 21:19N 36°60' W 001°23'1413.0
2014-Sep-15 20:17N 37°08' W 001°10'912.5
2014-Sep-15 19:33N 37°15' W 001°01'1312.7
2014-Sep-15 18:32N 37°23' W 000°49'1313.0
2014-Sep-15 17:33N 37°31' W 000°37'1313.2
2014-Sep-15 16:32N 37°42' W 000°27'1313.3
2014-Sep-15 15:33N 37°53' W 000°18'3812.8
2014-Sep-15 12:33N 38°25' E 000°08'6510.8
2014-Sep-15 06:33N 39°27' W 000°19'1 0.3
2014-Sep-15 04:12N 39°27' W 000°19'0 0.0
2014-Sep-15 02:06N 39°27' W 000°19'0 0.0
2014-Sep-15 01:23N 39°27' W 000°19'0 0.0
2014-Sep-15 00:26N 39°27' W 000°19'0 0.0
2014-Sep-14 23:29N 39°27' W 000°19'0 0.0
2014-Sep-14 21:28N 39°27' W 000°19'6 6.5
2014-Sep-14 20:33N 39°29' W 000°12'3114.5
2014-Sep-14 18:26N 39°50' E 000°18'4414.8
2014-Sep-14 15:27N 40°19' E 001°01'1112.1
2014-Sep-14 14:32N 40°27' E 001°11'2114.6
2014-Sep-14 13:07N 40°41' E 001°31'4813.5
2014-Sep-14 09:32N 41°12' E 002°20'1514.6
2014-Sep-14 08:29N 41°21' E 002°36'1714.9
2014-Sep-14 07:19N 41°32' E 002°54'8113.9
2014-Sep-14 01:30N 42°28' E 004°13'5614.3
2014-Sep-13 21:33N 43°09' E 005°06'1313.1
2014-Sep-13 20:33N 43°20' E 005°16'3 2.7
2014-Sep-13 19:22N 43°21' E 005°20'0 0.0
2014-Sep-13 18:31N 43°21' E 005°20'0 0.0
2014-Sep-13 17:21N 43°21' E 005°20'0 0.0
2014-Sep-13 16:24N 43°21' E 005°20'0 0.0
2014-Sep-13 15:23N 43°21' E 005°20'0 0.0
2014-Sep-13 14:20N 43°21' E 005°20'0 0.1
2014-Sep-13 13:32N 43°21' E 005°20'0 0.0
2014-Sep-13 12:29N 43°21' E 005°20'0 0.0
2014-Sep-13 08:33N 43°21' E 005°20'0 0.0
2014-Sep-13 07:26N 43°21' E 005°20'0 0.0
2014-Sep-13 05:32N 43°21' E 005°20'0 0.0
2014-Sep-13 04:28N 43°21' E 005°20'0 0.0
2014-Sep-13 03:31N 43°21' E 005°20'0 0.0
2014-Sep-13 02:24N 43°21' E 005°20'0 0.0
2014-Sep-13 01:33N 43°21' E 005°20'0 0.0
2014-Sep-13 00:14N 43°21' E 005°20'0 0.0
2014-Sep-12 22:29N 43°21' E 005°20'0 0.0
2014-Sep-12 21:25N 43°21' E 005°20'0 0.0
2014-Sep-12 20:10N 43°21' E 005°20'0 0.0
2014-Sep-12 19:24N 43°21' E 005°20'0 0.0
2014-Sep-12 18:18N 43°21' E 005°20'0 0.0
2014-Sep-12 17:29N 43°21' E 005°20'0 0.0
2014-Sep-12 16:24N 43°21' E 005°20'0 0.0
2014-Sep-12 15:32N 43°21' E 005°20'3 3.4
2014-Sep-12 14:33N 43°20' E 005°16'1211.5
2014-Sep-12 13:33N 43°10' E 005°08'1613.6
2014-Sep-12 12:21N 42°58' E 004°52'1013.1
2014-Sep-12 11:33N 42°51' E 004°42'1615.2
2014-Sep-12 10:29N 42°39' E 004°27'1311.2
2014-Sep-12 09:19N 42°30' E 004°14'1213.2
2014-Sep-12 08:27N 42°21' E 004°04'1313.1
2014-Sep-12 07:27N 42°12' E 003°51'1313.5
2014-Sep-12 06:27N 42°02' E 003°39'1212.9
2014-Sep-12 05:32N 41°54' E 003°27'1313.0
2014-Sep-12 04:33N 41°47' E 003°13'1313.0
2014-Sep-12 03:33N 41°39' E 002°59'1313.1
2014-Sep-12 02:33N 41°32' E 002°45'1413.9
2014-Sep-12 01:33N 41°25' E 002°28'1313.3
2014-Sep-12 00:33N 41°18' E 002°13'5 0.7
2014-Sep-11 18:10N 41°21' E 002°10'0 0.0
2014-Sep-11 16:27N 41°21' E 002°10'0 0.1
2014-Sep-11 11:32N 41°21' E 002°10'1010.1
2014-Sep-11 10:33N 41°11' E 002°08'1616.1
2014-Sep-11 09:33N 40°57' E 001°58'1616.4
2014-Sep-11 08:33N 40°43' E 001°48'1716.6
2014-Sep-11 07:33N 40°28' E 001°38'1616.3
2014-Sep-11 06:33N 40°13' E 001°28'1716.6
2014-Sep-11 05:33N 39°59' E 001°17'1616.1
2014-Sep-11 04:33N 39°45' E 001°07'1616.3
2014-Sep-11 03:33N 39°29' E 001°02'1616.5
2014-Sep-11 02:33N 39°14' E 000°53'1616.2
2014-Sep-11 01:33N 39°01' E 000°41'5416.4
2014-Sep-10 22:15N 38°13' E 000°08'1116.0
2014-Sep-10 21:33N 38°03' E 000°02'1616.2
2014-Sep-10 20:33N 37°49' W 000°07'1616.2
2014-Sep-10 19:33N 37°35' W 000°17'1816.3
2014-Sep-10 18:27N 37°19' W 000°27'1516.2
2014-Sep-10 17:31N 37°05' W 000°36'1716.1
2014-Sep-10 16:28N 36°50' W 000°46'1616.2
2014-Sep-10 15:28N 36°36' W 000°55'  
2014-Sep-07 19:07N 35°58' W 005°14'  

Dump ship's entire track history